createdAt,value
2023-04-15T00:10:36.344Z,7.431214072951506
2023-04-15T00:16:58.703Z,7.364259772157191
2023-04-15T00:23:19.747Z,7.372987432065217
2023-04-15T00:29:54.253Z,7.415168399874581
2023-04-15T00:38:31.313Z,7.366088785535116
2023-04-15T00:55:01.117Z,7.337816158026755
2023-04-15T01:01:24.076Z,7.347535404473244
2023-04-15T01:17:29.846Z,7.262514370819397
2023-04-15T01:23:52.311Z,7.285255539297658
2023-04-15T01:30:15.179Z,7.29229985367893
2023-04-15T01:38:24.416Z,7.198427048494982
2023-04-15T01:44:45.922Z,7.199321958612041
2023-04-15T01:54:11.859Z,7.229234819188964
2023-04-15T02:00:32.746Z,7.234657190635451
2023-04-15T02:06:54.889Z,7.238799905936454
2023-04-15T02:16:29.379Z,7.1993095474498325
2023-04-15T02:22:52.061Z,7.186983956939799
2023-04-15T02:29:14.964Z,7.182765468227425
2023-04-15T02:35:35.043Z,7.173195155727424
2023-04-15T02:41:57.509Z,7.155193744774246
2023-04-15T02:48:21.323Z,7.141585232023411
2023-04-15T02:54:48.521Z,7.188560174540132
2023-04-15T03:01:10.177Z,7.185068718645484
2023-04-15T03:08:58.332Z,7.224544053093646
2023-04-15T03:15:20.931Z,7.269187003553512
2023-04-15T03:21:42.003Z,7.29201439694816
2023-04-15T03:33:42.270Z,7.339807822951505
2023-04-15T03:40:03.818Z,7.298854906981606
2023-04-15T03:46:26.311Z,7.339278062290969
2023-04-15T03:52:51.405Z,7.322926029473245
2023-04-15T03:59:16.672Z,7.306851614757526
2023-04-15T04:05:39.182Z,7.369321566680601
2023-04-15T04:18:19.300Z,7.289929321697324
2023-04-15T04:24:40.241Z,7.375356004389632
2023-04-15T04:40:50.385Z,7.395297475961537
2023-04-15T04:47:11.361Z,7.414695469272575
2023-04-15T04:53:32.074Z,7.401392009824414
2023-04-15T04:59:55.924Z,7.394712191680601
2023-04-15T05:12:50.037Z,7.374163226379598
2023-04-15T05:22:53.832Z,7.409002665133778
2023-04-15T05:44:00.617Z,7.500481422449834
2023-04-15T05:53:20.551Z,7.5430308058110365
2023-04-15T05:59:48.639Z,7.55821227006689
2023-04-15T06:13:10.896Z,7.60599393812709
2023-04-15T06:25:56.000Z,7.73256558319398
2023-04-15T06:36:45.706Z,7.776459291387961
2023-04-15T06:43:51.197Z,7.793263351797659
2023-04-15T06:50:53.113Z,7.866775971989966
2023-04-15T06:57:46.380Z,7.861117788461539
2023-04-15T07:07:07.065Z,7.984654577759198
2023-04-15T07:13:28.497Z,8.008013038252509
2023-04-15T07:19:50.288Z,7.9387280518394645
2023-04-15T07:26:12.273Z,8.055177414297658
2023-04-15T07:37:40.581Z,8.154873014214045
2023-04-15T07:44:02.694Z,8.216654473244146
2023-04-15T07:50:27.402Z,8.307728234740802
2023-04-15T07:56:51.265Z,8.41677662520903
2023-04-15T08:03:13.628Z,8.553377795777592
2023-04-15T08:09:36.282Z,8.556896686872909
2023-04-15T08:21:41.407Z,8.515080868520066
2023-04-15T08:28:05.493Z,8.491806673285954
2023-04-15T08:34:28.440Z,8.459009197324416
2023-04-15T08:40:52.403Z,8.513882864757525
2023-04-15T08:47:15.558Z,8.594812787416386
2023-04-15T08:53:38.340Z,8.633073134406354
2023-04-15T09:00:04.824Z,8.670027043269231
2023-04-15T09:06:31.480Z,8.71087675062709
2023-04-15T09:17:52.040Z,8.738302806229095
2023-04-15T09:26:03.149Z,8.743189538043477
2023-04-15T09:32:28.629Z,8.835146451714046
2023-04-15T09:47:10.885Z,8.856868598453175
2023-04-15T10:00:29.175Z,8.77677087688127
2023-04-15T10:06:49.758Z,8.860923129180602
2023-04-15T10:13:10.117Z,8.985682091346154
2023-04-15T10:19:31.624Z,9.142934129389632
2023-04-15T10:25:58.667Z,9.210410352215717
2023-04-15T10:32:19.630Z,9.271521608486623
2023-04-15T10:38:40.856Z,9.251143133361204
2023-04-15T10:53:23.084Z,9.320055784908027
2023-04-15T10:59:44.416Z,9.375889031145483
2023-04-15T11:06:05.606Z,9.25728535221572
2023-04-15T11:20:04.803Z,9.430735263377926
2023-04-15T11:26:25.624Z,9.456863372700669
2023-04-15T11:32:47.125Z,9.36041035221572
2023-04-15T11:45:22.814Z,9.35367762332776
2023-04-15T11:51:43.809Z,9.4413435409699
2023-04-15T11:58:05.198Z,9.490713184573577
2023-04-15T12:04:26.322Z,9.502199388586957
2023-04-15T12:10:47.824Z,9.501146399456522
2023-04-15T12:17:09.478Z,9.472109505643813
2023-04-15T12:23:30.473Z,9.457542720526757
2023-04-15T12:35:07.331Z,9.537036214464885
2023-04-15T12:41:28.847Z,9.618904159698998
2023-04-15T12:47:50.430Z,9.681297031772575
2023-04-15T12:59:14.657Z,9.868778741638797
2023-04-15T13:10:04.312Z,9.957577341137124
2023-04-15T13:16:26.668Z,10.097735942725752
2023-04-15T13:22:48.775Z,10.265496315844484
2023-04-15T13:29:10.639Z,11.035895693979933
2023-04-15T13:40:42.612Z,12.104463445861203
2023-04-15T14:02:59.443Z,11.841350726379599
2023-04-15T14:09:21.352Z,12.040589072951505
2023-04-15T14:15:43.242Z,12.163432796822741
2023-04-15T14:24:29.762Z,12.117210362667224
2023-04-15T14:30:51.511Z,12.165004441889632
2023-04-15T14:39:47.648Z,12.147455711747492
2023-04-15T14:46:13.230Z,12.629633282817725
2023-04-15T14:52:40.288Z,12.547081417224081
2023-04-15T14:59:09.621Z,12.770705084657191
2023-04-15T15:12:14.905Z,12.591993493938126
2023-04-15T15:18:40.900Z,12.88923560305184
2023-04-15T15:29:53.638Z,12.434821801839465
2023-04-15T15:36:16.333Z,12.47782647888796
2023-04-15T15:42:38.752Z,12.637511757943141
2023-04-15T15:49:04.108Z,12.666902696488293
2023-04-15T15:55:27.896Z,12.580553015259198
2023-04-15T16:01:50.878Z,12.357398359113711
2023-04-15T16:08:13.499Z,12.2168595840301
2023-04-15T16:14:36.926Z,12.18003044000836
2023-04-15T16:21:03.628Z,12.120859244356188
2023-04-15T16:28:26.470Z,12.070862510451507
2023-04-15T16:38:09.113Z,12.091742004598663
2023-04-15T16:45:42.541Z,11.970403950668896
2023-04-15T16:58:00.946Z,11.775766879180603
2023-04-15T17:06:53.915Z,11.671389658235785
2023-04-15T17:14:00.979Z,11.62973387855351
2023-04-15T17:20:32.658Z,11.573866011705686
2023-04-15T17:27:02.640Z,11.582426447533445
2023-04-15T17:34:01.059Z,11.508074440844482
2023-04-15T17:40:28.965Z,11.499949702132108
2023-04-15T17:47:08.819Z,11.455703908862876
2023-04-15T18:02:03.099Z,11.408066602215719
2023-04-15T18:08:26.297Z,11.361548913043478
2023-04-15T18:14:55.079Z,11.252247073578594
2023-04-15T18:21:21.667Z,11.205116011705686
2023-04-15T18:29:01.969Z,11.143371132943143
2023-04-15T18:35:30.165Z,11.084189485785952
2023-04-15T18:45:51.553Z,11.035127508361205
2023-04-15T18:52:16.135Z,10.983796247909698
2023-04-15T18:59:10.248Z,10.947611831103679
2023-04-15T19:05:57.315Z,10.92331600125418
2023-04-15T19:12:21.690Z,10.889866612667223
2023-04-15T19:18:48.404Z,10.87716868729097
2023-04-15T19:25:12.375Z,10.862342574205684
2023-04-15T19:31:37.201Z,10.839344037416389
2023-04-15T19:45:03.357Z,10.792448134406355
2023-04-15T19:51:30.002Z,10.775527147784281
2023-04-15T19:59:46.191Z,10.767458585911372
2023-04-15T20:08:09.433Z,10.711119748118728
2023-04-15T20:15:19.484Z,10.701020328177256
2023-04-15T20:21:47.723Z,10.742482755016724
2023-04-15T20:28:19.791Z,10.697532138377927
2023-04-15T20:34:40.890Z,10.672145432692307
2023-04-15T20:43:44.890Z,10.590025998118728
2023-04-15T20:50:09.264Z,10.565316027382943
2023-04-15T20:56:33.860Z,10.575710702341137
2023-04-15T21:07:36.563Z,10.54367096049331
2023-04-15T21:14:01.263Z,10.548611256270902
2023-04-15T21:20:24.922Z,10.528211878135451
2023-04-15T21:26:46.461Z,10.46988333507525
2023-04-15T21:39:12.507Z,10.403868363294313
2023-04-15T21:45:35.370Z,10.342412860576923
2023-04-15T21:51:55.371Z,10.16707318666388
2023-04-15T21:58:15.370Z,10.019998954849498
2023-04-15T22:04:35.564Z,9.923882995401337
2023-04-15T22:15:41.654Z,9.86286123014214
2023-04-15T22:24:52.691Z,9.813789454431438
2023-04-15T22:31:11.873Z,9.786271948160536
2023-04-15T22:38:12.958Z,9.673940478678931
2023-04-15T22:46:28.073Z,9.625345552884614
2023-04-15T22:52:48.417Z,9.585164088628764
2023-04-15T23:01:25.531Z,9.479242657817725
2023-04-15T23:07:44.815Z,9.443548808528428
2023-04-15T23:14:04.658Z,9.392323369565217
2023-04-15T23:20:25.207Z,9.315468227424748
2023-04-15T23:28:51.899Z,9.233777957775919
2023-04-15T23:40:41.351Z,9.200362536580268
2023-04-15T23:47:03.760Z,9.13959160744147
2023-04-15T23:53:25.453Z,9.156216032608697
2023-04-15T23:59:49.359Z,9.155359662416387
